Overall Results: 5k

Sort by  Gun Time Net Time
Place Bib First Last Sex Age Div City State Gun
Time
Net
Time
Pace Sex
Place
Sex
Total
Div
Place
Div
Total
1 2048 Chad Noelle M 24 M2029 Boulder CO 15:39.9 15:38.7 5:03 1 894 1 145
2 2328 Simon Kelati M 15 M1315 Greeley CO 15:59.4 15:58.1 5:09 2 894 1 61
3 2413 Raceday Registration 16:07.9 16:06.6 5:12
4 2087 Josh Torres M 18 M1619 Greeley CO 16:16.0 16:14.8 5:15 3 894 1 55
5 923 Andrew King M 18 M1619 Kersey CO 16:51.5 16:46.3 5:26 4 894 2 55
6 723 Daniel Goding M 41 M4049 Loveland CO 16:52.4 16:51.1 5:26 6 894 1 118
7 1028 Mark Lonac M 32 M3039 Fort Collins CO 16:55.3 16:50.8 5:27 5 894 1 134
8 1913 Isaiah Remington M 19 M1619 Greeley CO 16:59.7 16:54.8 5:29 7 894 3 55
9 2476 Raceday Registration 17:15.6 16:59.4 5:34
10 2279 Dillon Burke M 16 M1619 Greeley CO 17:38.9 17:37.6 5:41 8 894 4 55
11 2315 Daniel Torres M 20 M2029 Greeley CO 17:42.5 17:38.3 5:42 9 894 2 145
12 598 Tyler Ellicott M 20 M2029 Platteville CO 17:49.8 17:42.4 5:45 10 894 3 145
13 1370 Luke Robinson M 15 M1315 18:01.2 17:49.6 5:48 11 894 2 61
14 1178 Bret Naber M 39 M3039 Greeley CO 18:10.0 18:05.2 5:51 12 894 2 134
15 1237 Kevin Palmer M 42 M4049 Boulder CO 18:19.5 18:14.7 5:54 13 894 2 118
16 2165 Ethan Stallbaumer M 18 M1619 Topeka KS 18:20.5 18:15.6 5:55 14 894 5 55
17 2348 Ben Geisler M 18 M1619 Highlands Ranch CO 18:29.1 18:23.5 5:57 15 894 6 55
18 2100 Burke Ewing M 15 M1315 Greeley CO 18:30.8 18:29.5 5:58 16 894 3 61
19 2358 Morgan Hykes F 16 F1619 Greeley CO 18:31.0 18:26.9 5:58 1 1224 1 95
20 1363 David Ritsema M 37 M3039 Greeley CO 18:36.9 18:32.9 6:00 17 894 3 134
21 2366 Raceday Registration 18:37.0 18:31.4 6:00
22 1104 Lane Mattox M 37 M3039 Greeley CO 18:38.8 18:33.9 6:01 18 894 4 134
23 1989 Ramon Villalobos M 16 M1619 Greeley CO 18:50.2 18:48.9 6:04 20 894 7 55
24 1008 David Leonard M 29 M2029 18:51.0 18:44.4 6:05 19 894 4 145
25 1885 Nick Thomas M 15 M1315 Greeley CO 19:02.3 18:57.2 6:08 21 894 4 61
26 885 Lara Johnson F 36 F3039 Boulder CO 19:08.1 19:02.6 6:10 2 1224 1 232
27 6 Jaeden Nelson M 13 M1315 Greeley CO 19:21.6 19:20.4 6:14 22 894 5 61
28 24 Doug Bell M 67 M6069 Greeley CO 19:26.9 19:25.6 6:16 24 894 1 92
29 1939 Brayden Garrott M 15 M1315 Greeley CO 19:32.0 19:27.0 6:18 25 894 7 61
30 926 Gabriel King M 15 M1315 Kersey CO 19:33.2 19:25.6 6:18 23 894 6 61
31 2420 Raceday Registration 19:52.9 19:51.6 6:24
32 30 Korey Stephens M 27 M2029 Greeley CO 19:54.9 6:25 848 894 135 145
33 1799 Logan Parks M 22 M2029 Greeley CO 19:56.6 19:46.2 6:26 26 894 5 145
34 2042 Cadence Lapp F 14 F1315 Loveland CO 20:01.2 19:59.9 6:27 3 1224 1 57
35 522 Shawn Croissant M 50 M5059 Greeley CO 20:01.5 19:55.2 6:27 27 894 1 137
36 1217 Daniel Orange M 29 M2029 Greeley CO 20:02.8 19:55.8 6:28 28 894 6 145
37 1448 Jason Schissler M 42 M4049 Greeley CO 20:12.1 6:31 849 894 112 118
38 915 Micheala Kelley F 17 F1619 Burwell NE 20:13.1 6:31 118 1224 92 95
39 1412 Arnie Salazar M 50 M5059 Johnstown CO 20:14.5 20:09.8 6:31 29 894 2 137
40 502 Rick Cone M 56 M5059 Greeley CO 20:28.2 20:24.3 6:36 30 894 3 137
41 555 Rick Denning M 56 M5059 Loveland CO 20:35.7 20:31.9 6:38 32 894 4 137
42 571 Austin Doughty M 28 M2029 Greeley CO 20:47.0 20:44.0 6:42 34 894 8 145
43 1707 Jeff Wiley M 40 M4049 Greeley CO 20:47.2 20:46.0 6:42 35 894 3 118
44 1680 Trey Weatherwax M 24 M2029 Greeley CO 20:49.8 20:43.3 6:43 33 894 7 145
45 1140 Rich Michelson M 60 M6069 Loveland CO 20:56.9 20:50.9 6:45 37 894 2 92
46 2546 Raceday Registration 20:58.3 6:45
47 2475 Raceday Registration 21:00.7 20:44.3 6:46
48 2479 Raceday Registration 21:03.0 6:47
49 2379 Raceday Registration 21:03.2 6:47
50 1527 Morgan Smith M 17 M1619 21:03.3 20:49.0 6:47 36 894 9 55
51 2280 Kurt Chamberlain M 36 M3039 Greeley CO 21:06.5 21:01.0 6:48 38 894 5 134
52 1329 Elias Ramos M 43 M4049 Greeley CO 21:08.2 21:01.8 6:49 39 894 4 118
53 2034 Dylan Yancey M 16 M1619 Eaton CO 21:13.3 20:29.8 6:50 31 894 8 55
54 322 Jeff Barrett M 51 M5059 Colorado Springs CO 21:13.5 21:03.5 6:50 40 894 5 137
55 1447 Hannah Schissler F 11 F0112 Greeley CO 21:14.3 21:09.6 6:51 4 1224 1 99
56 26 Wehazit Kelati F 13 F1315 Greeley CO 21:15.3 21:14.0 6:51 6 1224 2 57
57 1997 Andrew Lind M 21 M2029 Windsor CO 21:15.4 21:04.7 6:51 41 894 9 145
58 1075 Sofia Marikis F 22 F2029 Aurora CO 21:15.9 21:09.7 6:51 5 1224 1 248
59 2471 Raceday Registration 21:18.9 21:17.7 6:52
60 585 Daniel Dyer M 26 M2029 Greeley CO 21:31.9 21:17.2 6:56 42 894 10 145
61 626 Abuzaid Fanning M 12 M0112 Greeley CO 21:32.9 21:20.0 6:57 43 894 1 114
62 862 Kyle Huwa M 26 M2029 Washington DC 21:34.7 21:26.3 6:57 44 894 11 145
63 924 Christian King M 15 M1315 Kersey CO 21:36.0 21:28.7 6:58 45 894 8 61
64 1977 Steven Monroney M 53 M5059 Denver CO 21:36.5 21:30.9 6:58 46 894 6 137
65 117 Weston Pierce M 12 M0112 Greeley CO 21:37.7 21:32.1 6:58 47 894 2 114
66 766 Andy Hamilton M 11 M0112 21:50.3 7:02 850 894 110 114
67 2103 Fransisco Gonzalez M 48 M4049 Greeley CO 21:55.5 21:47.2 7:04 49 894 6 118
68 1719 Bradley Wood M 53 M5059 Ludlow NB 22:01.9 21:55.8 7:06 51 894 7 137
69 863 Eric Ikenouye M 41 M4049 Cortez CO 22:02.9 21:44.8 7:06 48 894 5 118
70 2478 Raceday Registration 22:04.5 21:58.3 7:07
71 1257 Tori Perales F 13 F1315 Greeley CO 22:04.6 22:00.6 7:07 7 1224 3 57
72 2403 Raceday Registration 22:07.5 22:00.5 7:08
73 315 Tyson Ballard M 33 M3039 22:08.0 21:48.4 7:08 50 894 6 134
74 1934 Juan Gutierrez M 43 M4049 Greeley CO 22:08.0 21:56.5 7:08 52 894 7 118
75 29 Brenda Lynch F 51 F5059 Greeley CO 22:08.1 22:02.9 7:08 8 1224 1 157
76 2394 Raceday Registration 22:08.4 21:48.7 7:08
77 1369 Isaac Robinson M 13 M1315 Longmont CO 22:09.4 21:57.7 7:08 53 894 9 61
78 2482 Raceday Registration 22:10.9 22:04.2 7:09
79 1232 Julian Pacheho M 16 M1619 Greeley CO 22:14.3 22:13.1 7:10 56 894 10 55
80 940 Kohl Knutson M 25 M2029 22:16.0 22:14.8 7:11 58 894 14 145
81 1349 Raquel Rendon F 11 F0112 22:17.1 7:11 118 1224 99 99
82 1030 Alfredo Lopez M 23 M2029 22:21.4 22:04.2 7:12 54 894 12 145
83 1754 Anthony Dale M 27 M2029 Greeley CO 22:22.0 22:14.0 7:12 57 894 13 145
84 1392 Matthew Ronne M 36 M3039 Greeley CO 22:22.0 22:09.6 7:12 55 894 7 134
85 1992 Jill Martin F 23 F2029 Eaton CO 22:26.3 7:14 118 1224 237 248
86 2467 Raceday Registration 22:28.6 22:21.6 7:15
87 973 Vince Lara M 6 M0112 Eaton CO 22:29.0 7:15 851 894 111 114
88 972 Rubi Lara F 34 F3039 Eaton CO 22:29.8 7:15 118 1224 225 232
89 1097 Will Mathews M 12 M0112 Greeley CO 22:31.1 22:25.7 7:15 60 894 3 114
90 769 Will Hamilton M 13 M1315 22:32.0 7:16 852 894 59 61
91 2260 Charles Struemke M 0 River Falls WI 22:33.5 22:25.2 7:16 59 894
92 426 Abby Bush F 13 F1315 22:34.2 7:16 118 1224 54 57
93 1800 Lynne Parks F 53 F5059 Greeley CO 22:35.5 22:31.1 7:17 9 1224 2 157
94 1764 William Smythe M 57 M5059 Greeley CO 22:37.3 22:32.1 7:17 61 894 8 137
95 1207 Alejandro Ojeda M 21 M2029 Greeley CO 22:42.2 7:19 853 894 136 145
96 1648 Karina Vargas F 24 F2029 22:42.5 7:19 118 1224 238 248
97 2437 Raceday Registration 22:42.7 7:19
98 428 Kelly Bush F 40 F4049 Greeley CO 22:42.7 7:19 118 1224 196 203
99 1855 Zach Broughton M 32 M3039 Greeley CO 22:42.9 7:19 854 894 126 134
100 1752 Amy Zulauf F 32 F3039 22:43.3 7:19 118 1224 226 232
101 2349 Charlie Geisler M 13 M1315 Highlands Ranch CO 22:43.7 7:19 855 894 60 61
102 578 Abigail Drexler F 26 F2029 Loveland CO 22:46.3 7:20 118 1224 239 248
103 1796 Danielle Schroeder F 27 F2029 Greeley CO 22:46.5 7:20 119 1224 240 248
104 604 Corey Eloe M 27 M2029 Greeley CO 22:46.9 7:20 856 894 137 145
105 1315 Nadia Raczek F 38 F3039 Windsor CO 22:50.1 7:21 119 1224 227 232
106 282 Pascual Aranda M 20 M2029 22:53.5 7:23 857 894 138 145
107 2102 Eddie Gonzalez M 45 M4049 Greeley CO 22:55.6 7:23 858 894 113 118
108 1360 Jack Ring M 13 M1315 Eaton CO 22:57.9 7:24 859 894 61 61
109 2525 Raceday Registration 22:58.1 7:24
110 1083 Joe Martin M 52 M5059 Brighton CO 22:58.7 7:24 860 894 133 137
111 1993 Mary Beth Martin F 19 F1619 Eaton CO 22:59.2 7:24 119 1224 93 95
112 279 Samantha Angus F 15 F1315 Greeley CO 23:00.4 7:25 119 1224 55 57
113 69 Travis Goeglein M 40 M4049 Greeley CO 23:03.2 7:26 861 894 114 118
114 2227 Theo Magi M 17 M1619 Lasalle CO 23:05.4 7:26 862 894 51 55
115 738 Quin Gregg F 13 F1315 Lyons CO 23:09.0 7:28 119 1224 56 57
116 294 David Baars M 31 M3039 Seattle WA 23:10.4 7:28 863 894 127 134
117 624 Nathaniel Fairchild M 32 M3039 Greeley CO 23:14.8 7:29 864 894 128 134
118 2381 Raceday Registration 23:16.4 7:30
119 572 Gage Doughty M 23 M2029 Greeley CO 23:17.2 7:30 865 894 139 145
120 1146 Kris Miller M 29 M2029 Wichita KS 23:17.7 7:30 866 894 140 145
121 1622 Sean Tyrrell M 21 M2029 Greeley CO 23:18.9 7:31 867 894 141 145
122 1790 Ethan Bylsma M 23 M2029 Greeley CO 23:19.0 7:31 868 894 142 145
123 2346 Christian Morrison M 25 M2029 Greeley CO 23:19.2 7:31 869 894 143 145
124 902 Matt Kaplan M 30 M3039 Fort Collins CO 23:19.3 7:31 870 894 129 134
125 249 Blake Alexander M 16 M1619 Evans CO 23:24.5 7:33 871 894 52 55
126 1886 Kawai Agens M 25 M2029 Greeley CO 23:24.7 23:18.8 7:33 62 894 15 145
127 2498 Raceday Registration 23:30.8 23:25.5 7:35
128 1940 Joshua Garrott M 13 M1315 Greeley CO 23:30.8 23:24.3 7:35 63 894 10 61
129 2224 Sunnie Yarnell F 11 F0112 Greeley CO 23:32.3 23:31.1 7:35 11 1224 2 99
130 421 Jenny Burns F 37 F3039 Boulder CO 23:33.6 7:35 119 1224 228 232
131 501 Brexton Cone M 19 M1619 Greeley CO 23:34.6 23:29.6 7:36 69 894 12 55
132 2400 Raceday Registration 23:35.4 23:04.3 7:36
133 1826 Tim Beckman M 58 M5059 Greeley CO 23:35.6 23:27.0 7:36 66 894 10 137
134 1995 Stephanie Lind M 50 M5059 Windsor CO 23:35.7 23:24.7 7:36 64 894 9 137
135 274 William Andrus M 40 M4049 Northglenn CO 23:39.1 23:29.3 7:37 68 894 8 118
136 187 Julia Brown F 16 F1619 Greeley CO 23:45.1 23:40.0 7:39 14 1224 2 95
137 1256 Natasha Perales F 15 F1315 Greeley CO 23:45.8 23:40.6 7:39 15 1224 4 57
138 739 Shawn Gregg M 45 M4049 Lyons CO 23:46.8 23:37.6 7:40 70 894 9 118
139 2472 Raceday Registration 23:47.6 23:03.5 7:40
140 1914 Beth Reinhardt F 38 F3039 Hamilton IL 23:50.8 23:39.3 7:41 13 1224 2 232
141 1528 Morgan Smith F 19 F1619 La Salle CO 23:51.7 23:44.9 7:41 16 1224 3 95
142 2372 Raceday Registration 23:53.2 23:45.1 7:42
143 186 Dudley Brown M 53 M5059 Greeley CO 23:56.5 23:51.3 7:43 77 894 11 137
144 922 Colton Kindvall M 21 M2029 Greeley CO 23:59.2 23:46.9 7:44 74 894 18 145
145 1973 Samuel Ferrara M 24 M2029 Greeley CO 24:00.6 23:39.0 7:44 71 894 16 145
146 1715 Shawn Williams M 47 M4049 24:01.4 23:54.4 7:44 78 894 11 118
147 755 Rylee Habel F 15 F1315 Pierce CO 24:01.8 23:50.0 7:45 18 1224 5 57
148 261 Caitlyn Anderson F 16 F1619 Ault CO 24:01.8 23:50.2 7:45 19 1224 5 95
149 1184 Trevor Neill F 25 F2029 Fort Collins CO 24:10.4 23:19.0 7:47 10 1224 2 248
150 780 Alfredo Haro M 28 M2029 Greeley CO 24:10.5 23:44.2 7:47 72 894 17 145
151 351 Jason Boker M 47 M4049 Greeley CO 24:11.7 23:46.4 7:48 73 894 10 118
152 61 Reece Lyons M 17 M1619 Greeley CO 24:12.9 23:26.5 7:48 65 894 11 55
153 1776 Logan O'Connell M 20 M2029 Eaton CO 24:13.1 24:02.9 7:48 80 894 20 145
154 2549 Raceday Registration 24:14.3 22:48.0 7:49
155 1155 Michelle Mjoen F 33 F3039 Berthoud CO 24:15.2 24:07.5 7:49 21 1224 3 232
156 103 Annaleiz Palacias F 20 F2029 Denver CO 24:16.4 24:09.7 7:49 22 1224 5 248
157 1789 Tim Bylsma M 55 M5059 Greeley CO 24:17.8 24:01.2 7:50 79 894 12 137
158 99 Zac Britton M 19 M1619 Greeley CO 24:18.0 24:11.0 7:50 84 894 13 55
159 1884 Dylan Thomas M 15 M1315 Greeley CO 24:18.7 24:13.4 7:50 85 894 12 61
160 57 Katie Lyons F 21 F2029 Greeley CO 24:19.5 23:32.8 7:50 12 1224 3 248
161 1564 Marcus Stewart M 29 M2029 24:23.3 24:06.2 7:51 81 894 21 145
162 1214 Jodi Olson F 38 F3039 Greeley CO 24:25.3 24:16.0 7:52 24 1224 4 232
163 286 Robert Arizmendi M 47 M4049 Greeley CO 24:26.8 24:19.9 7:53 88 894 12 118
164 1296 Shanna Pratt F 49 F4049 Eaton CO 24:26.9 24:14.3 7:53 23 1224 1 203
165 1162 Joseph Morgan M 28 M2029 Greeley CO 24:27.5 23:50.7 7:53 76 894 19 145
166 2443 Raceday Registration 24:27.8 24:19.5 7:53
167 789 Darren Hayden M 11 M0112 24:28.8 24:06.8 7:53 83 894 4 114
168 2024 Leandra Olivas F 24 F2029 Greeley CO 24:30.4 24:21.7 7:54 25 1224 6 248
169 2333 Jesse Tijerina M 65 M6069 Fort Lupton CO 24:30.9 24:22.7 7:54 90 894 3 92
170 840 Matt Hubach M Greeley CO 24:32.7 24:20.7 7:55 89 894
171 2395 Raceday Registration 24:36.1 24:10.1 7:56
172 1529 Randy Smith M 44 M4049 Eaton CO 24:37.1 24:23.6 7:56 92 894 13 118
173 112 Jose Luis Delval M 33 M3039 Longmont CO 24:37.4 23:48.3 7:56 75 894 8 134
174 273 Lana Andrews F 41 F4049 Windsor CO 24:41.6 24:34.0 7:57 30 1224 2 203
175 1950 Joshua Fischer M 37 M3039 Greeley CO 24:42.1 7:58 872 894 130 134
176 1561 Chelsey Stewart F 29 F2029 Greeley CO 24:43.4 24:25.6 7:58 26 1224 7 248
177 256 Jeff Allen M 28 M2029 Windsor CO 24:45.2 24:06.5 7:59 82 894 22 145
178 1139 Stephanie Merrick F 26 F2029 Fort Collins CO 24:45.2 24:06.9 7:59 20 1224 4 248
179 2099 Heidi Ewing F 41 F4049 Greeley CO 24:45.3 24:36.4 7:59 31 1224 3 203
180 1876 Erin Shepard F 28 F2029 Milliken CO 24:46.0 24:26.0 7:59 27 1224 8 248
181 642 David Figgs M 17 M1619 Greeley CO 24:48.0 24:16.7 7:59 87 894 14 55
182 1568 Megan Stoddard F 23 F2029 Boulder CO 24:49.4 24:38.0 8:00 32 1224 9 248
183 31 Tesfalem Tsige M 16 M1619 Greeley CO 24:50.8 24:44.8 8:00 93 894 15 55
184 2101 Liz Baylon F 17 F1619 Evans CO 24:51.7 23:46.1 8:01 17 1224 4 95
185 1880 Garrett Fagerberg M 15 M1315 Greeley CO 24:52.1 24:23.1 8:01 91 894 13 61
186 2122 Montana Mitchell F 32 F3039 Denver CO 24:52.2 24:29.6 8:01 28 1224 5 232
187 835 Julie Hoskins F 52 F5059 Greeley CO 24:53.8 24:42.6 8:01 33 1224 3 157
188 1567 Charlie Stoddard M 26 M2029 25:01.1 24:50.0 8:04 97 894 25 145
189 914 Emily Keller F 38 F3039 Evans CO 25:01.7 24:49.8 8:04 35 1224 7 232
190 941 Paul Knutson M 55 M5059 25:08.3 25:03.0 8:06 103 894 14 137
191 919 Michael Kim M 41 M4049 Windsor CO 25:09.3 8:06 873 894 115 118
192 80 Dustin Morris M 45 M4049 Greeley CO 25:11.5 24:50.0 8:07 98 894 14 118
193 1514 Bryce Smith M 14 M1315 25:13.0 24:59.6 8:07 100 894 14 61
194 1251 Florencio Pedraza M 34 M3039 25:15.0 24:49.2 8:08 95 894 9 134
195 253 Susan Alexander F 43 F4049 Evans CO 25:15.1 24:52.2 8:08 36 1224 4 203
196 1947 Jolie Jiricek F 13 F1315 Greeley CO 25:18.2 24:59.2 8:09 37 1224 6 57
197 2405 Raceday Registration 25:18.4 24:55.5 8:09
198 1233 Tom Packer M 55 M5059 Greeley CO 25:19.7 25:09.4 8:10 105 894 15 137
199 1686 Jenny Weber F 60 F6099 Greeley CO 25:20.4 25:16.2 8:10 41 1224 1 105
200 2145 Megan Miller F 21 F2029 Greeley CO 25:23.4 25:15.5 8:11 40 1224 10 248
201 391 Schafer Bronson M 15 M1315 25:23.9 25:02.4 8:11 102 894 15 61
202 1994 David Lind M 54 M5059 Windsor CO 25:25.6 24:57.3 8:12 99 894 13 137
203 1107 Heather McCall F 34 F3039 Briggsdale CO 25:25.7 25:02.9 8:12 38 1224 8 232
204 128 Tony Ball M 25 M2029 Greeley CO 25:26.8 24:49.4 8:12 96 894 24 145
205 1945 Trevor Jiricek M 49 M4049 Greeley CO 25:29.6 25:11.2 8:13 107 894 15 118
206 314 Danielle Ballard F 31 F3039 Evans CO 25:32.0 25:12.4 8:14 39 1224 9 232
207 1357 John Richardson M 52 M5059 Wiggins CO 25:32.9 25:20.6 8:14 111 894 16 137
208 250 Clay Alexander M 14 M1315 Evans CO 25:33.4 25:27.7 8:14 118 894 18 61
209 1915 Ethan Reinhardt M 13 M1315 Hamilton IL 25:36.3 25:24.2 8:15 115 894 17 61
210 2329 Eduardo Herrera M 52 M5059 Evans CO 25:38.0 25:32.2 8:16 120 894 18 137
211 661 Justin Flint M 31 M3039 Lakewood CO 25:38.2 25:19.2 8:16 110 894 12 134
212 1630 Joey Uyemura M 12 M0112 La Salle CO 25:40.8 25:23.2 8:16 112 894 5 114
213 958 Joseph Labonde M 30 M3039 Greeley CO 25:41.9 25:16.5 8:17 108 894 11 134
214 2214 Graham Bylsma M 27 M2029 Greeley CO 25:42.8 25:26.5 8:17 117 894 29 145
215 939 Kassidy Knutson F 22 F2029 25:42.9 25:23.9 8:17 42 1224 11 248
216 1033 Laurice Lopez-Cepero F 46 F4049 Pueblo CO 25:45.3 25:25.2 8:18 43 1224 5 203
217 1801 Jerry Adams M 52 M5059 Greeley CO 25:49.2 25:38.3 8:19 121 894 19 137
218 1093 Mason Martinez M 11 M0112 25:50.3 25:38.9 8:19 122 894 6 114
219 861 Mandi Huston F 32 F3039 Greeley CO 25:51.1 24:44.5 8:20 34 1224 6 232
220 430 Maggie Bush F 11 F0112 25:52.6 25:45.9 8:20 46 1224 4 99
221 231 Zach Huston M Greeley CO 25:52.9 24:46.0 8:20 94 894
222 410 Jake Budzynski M 14 M1315 25:53.4 25:10.1 8:20 106 894 16 61
223 2043 Kiarra Lapp F 14 F1315 Loveland CO 25:55.6 25:50.2 8:21 47 1224 7 57
224 729 Roberto Gonzales M 33 M3039 25:56.2 25:43.3 8:21 124 894 14 134
225 2106 Todd Molander M 29 M2029 Greeley CO 25:58.9 25:47.9 8:22 130 894 34 145
226 245 Brayden Aguilar M 11